Time;durP1;ratioP1;P1;durP2;ratioP2;P2;SDS_P1;SDS_P2;PMS_P1;PMS_P2;Temp;Humidity;BMP_temperature;BMP_pressure;BME280_temperature;BME280_humidity;BME280_pressure;Samples;Min_cycle;Max_cycle;Signal;HPM_P1;HPM_P2
2021/05/29 00:00:43;;;;;;;9.48;5.18;;;10.10;99.90;;;;;;5113592;28;20036;-69
2021/05/29 00:03:09;;;;;;;5.55;4.65;;;10.00;99.90;;;;;;5114514;28;20039;-69
2021/05/29 00:05:34;;;;;;;7.03;4.72;;;10.00;99.90;;;;;;5097193;28;20016;-70
2021/05/29 00:08:00;;;;;;;5.22;4.25;;;10.20;99.90;;;;;;5098876;27;20028;-68
2021/05/29 00:10:26;;;;;;;7.03;4.20;;;10.10;99.90;;;;;;5114392;28;20110;-69
2021/05/29 00:12:51;;;;;;;6.32;4.45;;;10.20;99.90;;;;;;5114411;28;20069;-68
2021/05/29 00:15:21;;;;;;;6.75;4.50;;;10.10;99.90;;;;;;5114277;28;20023;-68
2021/05/29 00:17:46;;;;;;;7.07;4.80;;;10.00;99.90;;;;;;5110246;28;20031;-68
2021/05/29 00:20:12;;;;;;;5.25;4.22;;;10.00;99.90;;;;;;5114496;28;20337;-68
2021/05/29 00:22:38;;;;;;;7.70;5.10;;;10.00;99.90;;;;;;5114127;28;20051;-70
2021/05/29 00:25:07;;;;;;;5.60;4.10;;;9.90;99.90;;;;;;5114267;28;20024;-69
2021/05/29 00:27:33;;;;;;;5.75;4.00;;;10.00;99.90;;;;;;5114199;28;20035;-68
2021/05/29 00:29:59;;;;;;;4.57;3.80;;;9.90;99.90;;;;;;5114117;28;20022;-69
2021/05/29 00:32:27;;;;;;;8.65;4.70;;;9.80;99.90;;;;;;5114031;28;20432;-69
2021/05/29 00:34:52;;;;;;;6.70;4.70;;;9.80;99.90;;;;;;5114038;28;20103;-70
2021/05/29 00:37:18;;;;;;;7.30;5.47;;;9.60;99.90;;;;;;5114074;28;20440;-70
2021/05/29 00:39:43;;;;;;;6.25;4.50;;;9.70;99.90;;;;;;5113841;28;20444;-69
2021/05/29 00:42:12;;;;;;;7.15;4.70;;;9.60;99.90;;;;;;5113781;28;20553;-69
2021/05/29 00:44:47;;;;;;;7.45;4.95;;;9.50;99.90;;;;;;5113108;28;20149;-70
2021/05/29 00:47:12;;;;;;;5.30;4.05;;;9.40;99.90;;;;;;5129932;27;20019;-69
2021/05/29 00:49:38;;;;;;;8.45;4.80;;;9.50;99.90;;;;;;5134234;27;20030;-67
2021/05/29 00:52:04;;;;;;;9.02;4.80;;;9.50;99.90;;;;;;5134305;27;20102;-71
2021/05/29 00:54:32;;;;;;;9.20;4.15;;;9.50;99.90;;;;;;5167908;27;20030;-69
2021/05/29 00:57:00;;;;;;;8.32;5.43;;;9.50;99.90;;;;;;5132829;27;20027;-69
2021/05/29 00:59:26;;;;;;;7.50;5.10;;;9.50;99.90;;;;;;5134120;27;20031;-69
2021/05/29 01:01:54;;;;;;;10.07;5.15;;;9.70;99.90;;;;;;5133970;27;20059;-69
2021/05/29 01:04:24;;;;;;;6.57;4.53;;;9.70;99.90;;;;;;5133032;27;20015;-69
2021/05/29 01:06:50;;;;;;;7.57;5.28;;;9.60;99.90;;;;;;5124752;27;20445;-68
2021/05/29 01:09:18;;;;;;;6.80;4.50;;;9.60;99.90;;;;;;5112112;28;20035;-68
2021/05/29 01:11:46;;;;;;;6.50;4.70;;;9.70;99.90;;;;;;5113381;28;20330;-68
2021/05/29 01:14:11;;;;;;;6.88;4.80;;;9.60;99.90;;;;;;5113084;28;20035;-68
2021/05/29 01:19:03;;;;;;;6.65;4.72;;;9.50;99.90;;;;;;5133750;27;20053;-68
2021/05/29 01:21:31;;;;;;;7.30;4.53;;;9.40;99.90;;;;;;5133496;27;20085;-68
2021/05/29 01:23:57;;;;;;;12.55;6.38;;;9.30;99.90;;;;;;5133685;27;20024;-68
2021/05/29 01:26:23;;;;;;;11.73;7.78;;;9.30;99.90;;;;;;5133744;27;20023;-68
2021/05/29 01:28:54;;;;;;;12.80;8.65;;;9.30;99.90;;;;;;5133606;27;20037;-68
2021/05/29 01:31:25;;;;;;;12.80;8.15;;;9.30;99.90;;;;;;5133659;27;20440;-68
2021/05/29 01:33:55;;;;;;;16.23;8.10;;;9.20;99.90;;;;;;5133913;27;20107;-69
2021/05/29 01:36:24;;;;;;;12.48;9.05;;;9.10;99.90;;;;;;5133645;27;20020;-69
2021/05/29 01:38:50;;;;;;;13.55;8.10;;;9.20;99.90;;;;;;5132372;27;20031;-69
2021/05/29 01:41:18;;;;;;;11.73;7.38;;;9.10;99.90;;;;;;5132267;27;20448;-69
2021/05/29 01:43:46;;;;;;;12.75;8.15;;;9.10;99.90;;;;;;5133664;27;20034;-69
2021/05/29 01:46:13;;;;;;;14.25;8.60;;;9.10;99.90;;;;;;5125618;27;20024;-70
2021/05/29 01:48:45;;;;;;;12.95;7.88;;;9.10;99.90;;;;;;5111563;28;20376;-68
2021/05/29 01:51:15;;;;;;;15.35;7.63;;;9.30;99.90;;;;;;5111579;28;20111;-68
2021/05/29 01:53:41;;;;;;;11.85;7.20;;;9.30;99.90;;;;;;5111579;28;20019;-68
2021/05/29 01:56:07;;;;;;;9.48;6.47;;;9.10;99.90;;;;;;5112157;28;20024;-68
2021/05/29 01:58:35;;;;;;;13.25;8.00;;;9.00;99.90;;;;;;5112610;28;20102;-67
2021/05/29 02:01:01;;;;;;;11.70;6.80;;;9.00;99.90;;;;;;5112461;28;20031;-67
2021/05/29 02:03:26;;;;;;;11.52;7.25;;;9.00;99.90;;;;;;5112314;28;20030;-69
2021/05/29 02:05:52;;;;;;;11.65;7.57;;;8.80;99.90;;;;;;5112351;28;20031;-67
2021/05/29 02:08:18;;;;;;;9.20;7.18;;;8.80;99.90;;;;;;5112322;28;20051;-69
2021/05/29 02:10:45;;;;;;;7.93;6.47;;;8.80;99.90;;;;;;5112144;28;20019;-69
2021/05/29 02:13:20;;;;;;;10.43;7.05;;;8.80;99.90;;;;;;5112182;28;20028;-69
2021/05/29 02:15:48;;;;;;;9.85;7.30;;;8.80;99.90;;;;;;5115365;27;20056;-69
2021/05/29 02:18:14;;;;;;;11.02;7.22;;;8.70;99.90;;;;;;5131942;27;20455;-68
2021/05/29 02:20:48;;;;;;;9.60;6.80;;;8.60;99.90;;;;;;5132446;27;20106;-69
2021/05/29 02:23:20;;;;;;;12.77;7.70;;;8.50;99.90;;;;;;5132448;28;20031;-69
2021/05/29 02:25:50;;;;;;;12.38;7.70;;;8.40;99.90;;;;;;5131539;28;20027;-69
2021/05/29 02:28:17;;;;;;;10.20;6.70;;;8.40;99.90;;;;;;5132944;27;20023;-68
2021/05/29 02:30:43;;;;;;;10.13;7.10;;;8.40;99.90;;;;;;5132617;27;20047;-68
2021/05/29 02:33:10;;;;;;;9.18;6.40;;;8.40;99.90;;;;;;5132643;28;20023;-68
2021/05/29 02:35:38;;;;;;;9.93;6.57;;;8.30;99.90;;;;;;5132593;27;20034;-68
2021/05/29 02:38:07;;;;;;;9.70;6.60;;;8.40;99.90;;;;;;5132784;27;20439;-69
2021/05/29 02:40:33;;;;;;;11.98;7.47;;;8.30;99.90;;;;;;5114255;28;20038;-68
2021/05/29 02:42:59;;;;;;;12.88;8.48;;;8.30;99.90;;;;;;5132368;27;20102;-68
2021/05/29 02:45:29;;;;;;;9.75;6.72;;;8.40;99.90;;;;;;5124915;28;20115;-67
2021/05/29 02:47:55;;;;;;;10.38;7.65;;;8.40;99.90;;;;;;5132332;27;20344;-67
2021/05/29 02:50:22;;;;;;;10.32;7.20;;;8.40;99.90;;;;;;5132140;27;20112;-69
2021/05/29 02:52:48;;;;;;;7.65;6.28;;;8.40;99.90;;;;;;5132295;27;20029;-68
2021/05/29 02:55:21;;;;;;;12.25;6.95;;;8.50;99.90;;;;;;5132194;27;20027;-68
2021/05/29 02:57:47;;;;;;;10.93;6.32;;;8.50;99.90;;;;;;5132390;27;20096;-68
2021/05/29 03:00:13;;;;;;;10.07;7.28;;;8.40;99.90;;;;;;5132252;27;20494;-68
2021/05/29 03:02:39;;;;;;;8.38;5.97;;;8.50;99.90;;;;;;5132161;27;20564;-67
2021/05/29 03:05:06;;;;;;;14.07;6.80;;;8.50;99.90;;;;;;5132273;28;20040;-68
2021/05/29 03:07:32;;;;;;;9.93;6.60;;;8.30;99.90;;;;;;5132422;27;20031;-68
2021/05/29 03:09:58;;;;;;;14.02;7.05;;;8.30;99.90;;;;;;5135994;27;20019;-69
2021/05/29 03:12:24;;;;;;;13.13;6.95;;;8.30;99.90;;;;;;5136191;27;20027;-69
2021/05/29 03:14:50;;;;;;;9.25;6.25;;;8.30;99.90;;;;;;5136078;27;20023;-68
2021/05/29 03:17:16;;;;;;;10.63;7.10;;;8.20;99.90;;;;;;5118607;27;20032;-68
2021/05/29 03:19:41;;;;;;;12.00;7.68;;;8.20;99.90;;;;;;5115560;28;20073;-70
2021/05/29 03:22:07;;;;;;;12.00;9.38;;;8.20;99.90;;;;;;5115254;28;20059;-68
2021/05/29 03:24:35;;;;;;;19.77;9.25;;;8.20;99.90;;;;;;5114404;28;20141;-69
2021/05/29 03:27:00;;;;;;;14.40;9.15;;;8.30;99.90;;;;;;5115349;28;20028;-69
2021/05/29 03:29:26;;;;;;;11.20;8.13;;;8.60;99.90;;;;;;5115322;28;20033;-69
2021/05/29 03:31:52;;;;;;;11.82;7.20;;;8.70;99.90;;;;;;5115226;28;20452;-69
2021/05/29 03:34:17;;;;;;;10.68;7.00;;;8.40;99.90;;;;;;5115084;28;20019;-69
2021/05/29 03:36:45;;;;;;;8.70;5.80;;;8.50;99.90;;;;;;5115175;28;20039;-69
2021/05/29 03:39:11;;;;;;;9.52;7.03;;;8.50;99.90;;;;;;5115110;28;20032;-69
2021/05/29 03:41:36;;;;;;;8.85;6.25;;;8.60;99.90;;;;;;5115159;28;20035;-69
2021/05/29 03:44:04;;;;;;;10.45;6.18;;;8.80;99.90;;;;;;5114872;28;20383;-69
2021/05/29 03:46:32;;;;;;;9.88;7.35;;;8.70;99.90;;;;;;5114932;28;20024;-69
2021/05/29 03:48:58;;;;;;;9.35;6.38;;;8.80;99.90;;;;;;5113830;28;20080;-69
2021/05/29 03:51:24;;;;;;;7.68;5.78;;;8.80;99.90;;;;;;5115053;28;20361;-69
2021/05/29 03:53:49;;;;;;;13.55;6.50;;;8.90;99.90;;;;;;5114687;28;20031;-69
2021/05/29 03:56:15;;;;;;;11.15;7.18;;;8.80;99.90;;;;;;5114676;28;20099;-69
2021/05/29 03:58:41;;;;;;;9.52;6.28;;;8.70;99.90;;;;;;5113821;28;20024;-69
2021/05/29 04:01:06;;;;;;;12.05;6.57;;;8.70;99.90;;;;;;5114522;28;20023;-69
2021/05/29 04:03:35;;;;;;;7.45;5.85;;;8.70;99.90;;;;;;5114726;28;20019;-69
2021/05/29 04:06:00;;;;;;;10.13;7.32;;;8.70;99.90;;;;;;5114691;28;20441;-69
2021/05/29 04:08:29;;;;;;;8.30;6.82;;;8.80;99.90;;;;;;5114628;28;20034;-68
2021/05/29 04:10:54;;;;;;;10.10;6.50;;;8.90;99.90;;;;;;5114545;28;20036;-68
2021/05/29 04:13:20;;;;;;;9.85;6.30;;;8.90;99.90;;;;;;5114350;28;20103;-68
2021/05/29 04:15:48;;;;;;;7.75;5.97;;;9.00;99.90;;;;;;5109556;28;20073;-68
2021/05/29 04:18:13;;;;;;;8.05;6.15;;;9.00;99.90;;;;;;5093934;28;20038;-69
2021/05/29 04:20:39;;;;;;;14.60;6.88;;;9.10;99.90;;;;;;5095065;28;20016;-68
2021/05/29 04:23:07;;;;;;;8.68;6.40;;;9.20;99.90;;;;;;5092731;28;20047;-70
2021/05/29 04:25:32;;;;;;;9.10;6.03;;;9.30;99.90;;;;;;5111015;28;20440;-69
2021/05/29 04:28:00;;;;;;;8.85;6.43;;;9.30;99.90;;;;;;5113122;28;20103;-69
2021/05/29 04:30:30;;;;;;;11.02;6.05;;;9.20;99.90;;;;;;5114255;28;20027;-70
2021/05/29 04:32:56;;;;;;;7.93;6.65;;;9.20;99.90;;;;;;5114345;28;20407;-69
2021/05/29 04:35:22;;;;;;;11.25;6.07;;;9.30;99.90;;;;;;5114130;28;20085;-69
2021/05/29 04:37:49;;;;;;;11.77;6.47;;;9.20;99.90;;;;;;5114204;28;20031;-69
2021/05/29 04:40:19;;;;;;;8.80;6.07;;;9.20;99.90;;;;;;5113973;28;20106;-69
2021/05/29 04:42:45;;;;;;;7.88;6.25;;;9.20;99.90;;;;;;5113884;28;20609;-69
2021/05/29 04:45:12;;;;;;;8.15;5.93;;;9.30;99.90;;;;;;5113719;28;20023;-68
2021/05/29 04:47:40;;;;;;;13.45;7.47;;;9.50;99.90;;;;;;5114148;28;20020;-68
2021/05/29 04:50:07;;;;;;;8.25;6.07;;;9.50;99.90;;;;;;5113799;28;20648;-69
2021/05/29 04:52:36;;;;;;;9.95;5.93;;;9.60;99.90;;;;;;5113806;28;20019;-69
2021/05/29 04:55:02;;;;;;;10.95;7.15;;;9.60;99.90;;;;;;5112548;28;20460;-69
2021/05/29 04:57:28;;;;;;;7.50;5.93;;;9.60;99.90;;;;;;5113736;28;20032;-68
2021/05/29 04:59:54;;;;;;;8.55;6.25;;;9.70;99.90;;;;;;5113633;28;20020;-69
2021/05/29 05:02:19;;;;;;;8.20;6.30;;;9.70;99.90;;;;;;5113843;28;20394;-69
2021/05/29 05:04:47;;;;;;;9.68;6.38;;;9.70;99.90;;;;;;5113430;28;20023;-69
2021/05/29 05:07:13;;;;;;;9.35;6.68;;;9.80;99.90;;;;;;5113411;28;20452;-69
2021/05/29 05:09:38;;;;;;;10.30;5.82;;;9.90;99.90;;;;;;5113379;28;20021;-69
2021/05/29 05:12:07;;;;;;;10.23;7.90;;;10.00;99.90;;;;;;5112708;28;20042;-69
2021/05/29 05:14:35;;;;;;;9.18;7.05;;;10.00;99.90;;;;;;5113469;28;20356;-69
2021/05/29 05:17:03;;;;;;;10.30;7.13;;;10.10;99.90;;;;;;5127680;27;20027;-69
2021/05/29 05:19:31;;;;;;;8.85;6.72;;;10.10;99.90;;;;;;5132587;27;20165;-70
2021/05/29 05:21:59;;;;;;;11.45;6.85;;;10.20;99.90;;;;;;5133201;27;20046;-68
2021/05/29 05:24:25;;;;;;;9.85;7.03;;;10.20;99.90;;;;;;5133544;27;20023;-68
2021/05/29 05:26:51;;;;;;;12.23;7.97;;;10.40;99.90;;;;;;5133675;27;20075;-68
2021/05/29 05:29:19;;;;;;;15.40;9.10;;;10.40;99.90;;;;;;5133378;27;20437;-69
2021/05/29 05:31:47;;;;;;;13.40;9.88;;;10.50;99.90;;;;;;5131891;27;20056;-68
2021/05/29 05:34:13;;;;;;;15.48;9.90;;;10.70;99.90;;;;;;5133423;27;20046;-69
2021/05/29 05:36:40;;;;;;;13.27;9.02;;;10.70;99.90;;;;;;5133288;27;20098;-68
2021/05/29 05:39:10;;;;;;;11.90;8.82;;;10.80;99.90;;;;;;5132254;27;20058;-69
2021/05/29 05:41:37;;;;;;;15.13;9.57;;;10.80;99.90;;;;;;5133215;27;20030;-69
2021/05/29 05:44:06;;;;;;;12.93;9.07;;;10.90;99.90;;;;;;5132039;27;20413;-69
2021/05/29 05:46:32;;;;;;;12.75;9.32;;;11.00;99.90;;;;;;5122646;27;20024;-70
2021/05/29 05:48:57;;;;;;;11.85;8.55;;;11.20;99.90;;;;;;5112414;28;20034;-70
2021/05/29 05:51:24;;;;;;;13.18;9.05;;;11.20;99.90;;;;;;5112606;28;20020;-70
2021/05/29 05:53:50;;;;;;;14.38;10.15;;;11.40;99.90;;;;;;5112505;28;20107;-71
2021/05/29 05:56:25;;;;;;;12.23;8.30;;;11.50;99.90;;;;;;5112573;28;20123;-70
2021/05/29 05:58:51;;;;;;;14.07;9.68;;;11.60;99.90;;;;;;5112654;28;20036;-71
2021/05/29 06:01:19;;;;;;;13.43;9.70;;;11.80;99.90;;;;;;5113387;28;20023;-71
2021/05/29 06:03:45;;;;;;;12.73;9.07;;;11.90;99.90;;;;;;5112097;28;20565;-70
2021/05/29 06:06:11;;;;;;;14.80;8.18;;;12.00;99.90;;;;;;5112634;28;20019;-70
2021/05/29 06:08:37;;;;;;;13.15;8.98;;;12.00;99.90;;;;;;5112363;28;20398;-70
2021/05/29 06:11:02;;;;;;;17.00;9.80;;;12.10;99.90;;;;;;5112457;28;20103;-70
2021/05/29 06:17:55;;;;;;;11.30;7.80;;;12.20;99.90;;;;;;5112256;28;20058;-69
2021/05/29 06:21:37;;;;;;;11.80;8.82;;;12.70;99.90;;;;;;5132844;27;20047;-68
2021/05/29 06:24:03;;;;;;;12.63;8.48;;;12.80;99.90;;;;;;5132545;27;20091;-69
2021/05/29 06:26:32;;;;;;;11.85;8.40;;;12.80;99.90;;;;;;5132475;27;20031;-70
2021/05/29 06:28:58;;;;;;;12.05;8.75;;;13.00;99.90;;;;;;5131503;27;20030;-69
2021/05/29 06:31:26;;;;;;;12.07;8.23;;;13.20;99.90;;;;;;5131595;28;20023;-68
2021/05/29 06:33:51;;;;;;;17.02;8.45;;;13.50;99.90;;;;;;5132521;27;20039;-69
2021/05/29 06:36:19;;;;;;;11.93;8.63;;;13.70;99.90;;;;;;5132497;28;20027;-69
2021/05/29 06:38:45;;;;;;;11.77;7.45;;;14.00;99.90;;;;;;5132367;28;20043;-69
2021/05/29 06:41:13;;;;;;;9.57;7.20;;;14.40;99.90;;;;;;5114219;28;20375;-71
2021/05/29 06:43:41;;;;;;;8.55;5.68;;;15.20;99.90;;;;;;5134373;27;20026;-78
2021/05/29 06:46:06;;;;;;;7.20;5.00;;;16.30;99.90;;;;;;5129611;27;20028;-76
2021/05/29 06:48:32;;;;;;;7.70;5.50;;;17.00;99.20;;;;;;5115065;28;20023;-76
2021/05/29 06:50:58;;;;;;;7.43;4.53;;;17.60;98.30;;;;;;5114885;28;20058;-76
2021/05/29 06:53:49;;;;;;;5.90;4.40;;;18.60;96.70;;;;;;5115864;28;20019;-77
2021/05/29 06:59:03;;;;;;;4.30;3.17;;;20.30;91.10;;;;;;5106733;28;20039;-75
2021/05/29 07:01:29;;;;;;;4.32;3.08;;;21.40;86.90;;;;;;5115515;28;20024;-73
2021/05/29 07:03:55;;;;;;;5.00;3.40;;;22.10;83.80;;;;;;5115856;28;20012;-74
2021/05/29 07:06:22;;;;;;;4.60;3.20;;;23.00;77.50;;;;;;5115460;28;20027;-74
2021/05/29 07:08:48;;;;;;;8.25;3.20;;;23.70;72.60;;;;;;5114478;28;20074;-74
2021/05/29 07:11:15;;;;;;;4.60;3.08;;;23.80;69.70;;;;;;5114810;28;20045;-75
2021/05/29 07:13:43;;;;;;;5.20;3.72;;;24.00;70.20;;;;;;5115750;28;20020;-77
2021/05/29 07:16:11;;;;;;;4.78;3.63;;;23.90;68.70;;;;;;5122787;27;20443;-75
2021/05/29 07:18:45;;;;;;;3.67;3.28;;;23.90;68.20;;;;;;5136168;27;20344;-77
2021/05/29 07:21:14;;;;;;;3.08;2.78;;;24.30;66.80;;;;;;5136220;27;20139;-75
2021/05/29 07:23:43;;;;;;;3.65;2.90;;;24.60;65.40;;;;;;5136188;27;20041;-77
2021/05/29 07:26:08;;;;;;;5.88;3.80;;;24.80;66.00;;;;;;5135849;27;20019;-79
2021/05/29 07:28:40;;;;;;;4.93;3.28;;;25.10;63.90;;;;;;5136533;27;20034;-80
2021/05/29 07:31:06;;;;;;;5.45;3.40;;;25.00;64.60;;;;;;5135934;27;20027;-80
2021/05/29 07:33:32;;;;;;;6.28;3.58;;;25.70;61.80;;;;;;5135868;27;20187;-79
2021/05/29 07:35:58;;;;;;;4.68;3.63;;;25.50;60.90;;;;;;5136000;27;20026;-78
2021/05/29 07:38:25;;;;;;;5.40;3.53;;;25.50;61.50;;;;;;5135655;27;20092;-73
2021/05/29 07:40:51;;;;;;;4.82;3.67;;;25.40;60.90;;;;;;5134508;27;20392;-73
2021/05/29 07:43:20;;;;;;;6.30;4.47;;;25.30;61.60;;;;;;5122332;27;20139;-74
2021/05/29 07:45:49;;;;;;;4.18;3.50;;;25.70;62.60;;;;;;5118993;27;20046;-76
2021/05/29 07:48:18;;;;;;;5.93;4.07;;;26.10;60.80;;;;;;5135577;27;20178;-76
2021/05/29 07:51:01;;;;;;;5.88;4.03;;;26.50;60.20;;;;;;5134419;27;20016;-75
2021/05/29 07:53:35;;;;;;;10.80;5.50;;;26.90;60.60;;;;;;5135503;27;20019;-77
2021/05/29 07:56:07;;;;;;;5.72;3.83;;;27.50;58.80;;;;;;5135287;27;20341;-76
2021/05/29 07:58:33;;;;;;;4.95;3.50;;;27.40;58.10;;;;;;5135365;27;20023;-74
2021/05/29 08:01:01;;;;;;;4.40;4.00;;;28.20;56.90;;;;;;5135519;27;20030;-75
2021/05/29 08:03:31;;;;;;;3.72;2.67;;;28.20;55.60;;;;;;5135252;27;20452;-75
2021/05/29 08:05:57;;;;;;;4.63;3.13;;;28.60;55.10;;;;;;5135211;27;20047;-73
2021/05/29 08:08:24;;;;;;;7.57;3.95;;;28.90;54.10;;;;;;5135431;27;20434;-70
2021/05/29 08:10:51;;;;;;;4.78;3.35;;;28.50;54.30;;;;;;5135202;27;20023;-68
2021/05/29 08:13:17;;;;;;;3.55;3.10;;;28.70;53.50;;;;;;5133978;27;20110;-68
2021/05/29 08:15:47;;;;;;;6.03;3.13;;;28.90;53.00;;;;;;5130131;27;20028;-67
2021/05/29 08:18:16;;;;;;;6.70;3.35;;;28.70;53.70;;;;;;5114528;28;20437;-67
2021/05/29 08:20:42;;;;;;;4.57;3.60;;;29.10;52.00;;;;;;5114423;28;20023;-67
2021/05/29 08:23:10;;;;;;;4.07;2.97;;;29.00;51.20;;;;;;5114234;28;20142;-67
2021/05/29 08:25:36;;;;;;;3.65;2.53;;;28.20;53.30;;;;;;5114193;28;20019;-67
2021/05/29 08:28:03;;;;;;;4.35;2.33;;;29.00;52.00;;;;;;5114576;28;20421;-68
2021/05/29 08:30:31;;;;;;;2.10;1.90;;;29.60;49.50;;;;;;5113051;28;20507;-68
2021/05/29 08:32:57;;;;;;;3.10;2.35;;;29.20;51.80;;;;;;5112838;28;20571;-68
2021/05/29 08:35:25;;;;;;;4.10;2.47;;;29.20;50.30;;;;;;5112958;28;20106;-68
2021/05/29 08:37:51;;;;;;;2.60;2.30;;;30.10;49.00;;;;;;5112860;27;20020;-68
2021/05/29 08:40:19;;;;;;;2.67;2.10;;;29.80;49.80;;;;;;5111513;28;20031;-68
2021/05/29 08:42:46;;;;;;;4.30;2.55;;;30.10;49.10;;;;;;5112833;28;20015;-68
2021/05/29 08:45:13;;;;;;;4.28;2.80;;;30.50;48.50;;;;;;5113731;28;20423;-68
2021/05/29 08:47:39;;;;;;;2.30;2.10;;;30.40;47.60;;;;;;5113747;28;20024;-68
2021/05/29 08:50:05;;;;;;;4.80;2.35;;;29.50;48.70;;;;;;5113772;28;20038;-68
2021/05/29 08:52:36;;;;;;;3.03;1.90;;;29.40;48.50;;;;;;5113759;28;20038;-68
2021/05/29 08:55:10;;;;;;;3.45;2.38;;;29.20;48.00;;;;;;5114030;28;20436;-68
2021/05/29 08:57:38;;;;;;;3.78;1.88;;;29.60;47.70;;;;;;5113635;28;20031;-68
2021/05/29 09:00:08;;;;;;;2.72;1.90;;;30.30;47.60;;;;;;5113563;28;20486;-68
2021/05/29 09:02:58;;;;;;;3.15;2.47;;;30.20;47.50;;;;;;5113425;28;20042;-68
2021/05/29 09:05:41;;;;;;;2.90;1.77;;;;;;;;;;5112036;28;20028;-68
2021/05/29 09:08:12;;;;;;;2.75;1.95;;;29.50;47.80;;;;;;5113674;28;20041;-68
2021/05/29 09:10:41;;;;;;;1.58;1.25;;;29.80;47.30;;;;;;5113665;27;20020;-68
2021/05/29 09:13:23;;;;;;;18.08;1.95;;;31.50;45.70;;;;;;5113374;28;20051;-68
2021/05/29 09:15:59;;;;;;;3.47;1.77;;;31.80;45.70;;;;;;5117641;27;20245;-68
2021/05/29 09:18:46;;;;;;;2.42;1.83;;;31.90;46.30;;;;;;5133785;27;20029;-68
2021/05/29 09:21:31;;;;;;;2.47;1.75;;;32.80;44.00;;;;;;5133520;27;20035;-68
2021/05/29 09:24:18;;;;;;;2.45;1.92;;;33.40;43.80;;;;;;5133526;27;20025;-68
2021/05/29 09:29:28;;;;;;;4.10;2.47;;;33.80;43.50;;;;;;5068978;28;20728;-68
2021/05/29 09:32:07;;;;;;;4.28;2.17;;;33.20;44.30;;;;;;5069018;28;20426;-68
2021/05/29 09:34:49;;;;;;;5.78;1.95;;;33.10;45.00;;;;;;5068974;28;20031;-69
2021/05/29 09:37:28;;;;;;;2.95;2.38;;;33.70;44.40;;;;;;5069010;28;20066;-68
2021/05/29 09:39:59;;;;;;;4.90;2.50;;;33.20;44.30;;;;;;5069028;28;20029;-68
2021/05/29 09:42:36;;;;;;;2.13;1.58;;;33.20;44.80;;;;;;5067985;28;20107;-68
2021/05/29 09:45:27;;;;;;;2.00;1.77;;;34.00;43.60;;;;;;5069060;28;20028;-68
2021/05/29 09:48:16;;;;;;;4.70;1.95;;;34.80;43.10;;;;;;5048894;28;20037;-69
2021/05/29 09:51:01;;;;;;;;;;;35.40;42.60;;;;;;5049261;28;20017;-68
2021/05/29 09:53:29;;;;;;;2.13;1.85;;;35.50;42.00;;;;;;5048934;28;19905;-69
2021/05/29 09:55:55;;;;;;;3.13;2.00;;;34.50;42.70;;;;;;5048512;28;20100;-69
2021/05/29 09:58:41;;;;;;;6.70;2.30;;;33.00;43.50;;;;;;5048681;28;20571;-69
2021/05/29 10:01:09;;;;;;;2.38;2.15;;;30.80;46.10;;;;;;5048277;28;20445;-70
2021/05/29 10:03:47;;;;;;;4.70;2.75;;;28.90;48.30;;;;;;5048454;28;20033;-69
2021/05/29 10:06:15;;;;;;;3.05;1.92;;;27.90;50.40;;;;;;5048543;28;20111;-69
2021/05/29 10:08:43;;;;;;;2.33;1.85;;;29.80;48.70;;;;;;5048199;28;20025;-69
2021/05/29 10:11:09;;;;;;;2.25;1.65;;;31.30;46.20;;;;;;5057012;28;20024;-69
2021/05/29 10:13:36;;;;;;;3.15;1.95;;;32.90;44.20;;;;;;5068395;28;20350;-68
2021/05/29 10:16:02;;;;;;;3.13;1.73;;;32.90;44.50;;;;;;5062443;28;20433;-68
2021/05/29 10:18:28;;;;;;;5.05;2.10;;;32.60;44.40;;;;;;5048229;28;20462;-69
2021/05/29 10:20:54;;;;;;;2.28;1.70;;;30.70;45.30;;;;;;5048392;28;20091;-68
2021/05/29 10:23:22;;;;;;;3.10;1.75;;;28.70;47.90;;;;;;5048570;28;20029;-68
2021/05/29 10:25:53;;;;;;;2.17;1.80;;;27.40;50.10;;;;;;5048317;28;20017;-68
2021/05/29 10:28:19;;;;;;;2.50;1.85;;;27.70;49.70;;;;;;5048150;28;20127;-68
2021/05/29 10:30:49;;;;;;;3.72;1.73;;;28.40;49.90;;;;;;5048332;28;20049;-68
2021/05/29 10:33:16;;;;;;;2.75;1.50;;;28.60;48.60;;;;;;5048091;28;20092;-68
2021/05/29 10:35:45;;;;;;;2.47;2.05;;;30.50;47.10;;;;;;5048218;28;20017;-68
2021/05/29 10:38:13;;;;;;;1.70;1.60;;;30.40;46.30;;;;;;5048296;28;20022;-68
2021/05/29 10:40:43;;;;;;;2.45;1.75;;;29.10;47.30;;;;;;5035137;28;20021;-68
2021/05/29 10:43:18;;;;;;;4.95;2.00;;;27.40;50.40;;;;;;5033914;28;20028;-68
2021/05/29 10:45:53;;;;;;;4.03;2.15;;;26.70;50.40;;;;;;5042070;28;20036;-69
2021/05/29 10:48:23;;;;;;;3.50;2.00;;;27.70;49.40;;;;;;5074638;28;20564;-68
2021/05/29 10:51:09;;;;;;;3.38;1.85;;;28.50;48.90;;;;;;5074612;28;20039;-68
2021/05/29 10:53:56;;;;;;;3.58;2.00;;;28.50;49.50;;;;;;5074442;28;20051;-69
2021/05/29 10:56:22;;;;;;;5.47;2.33;;;29.50;47.60;;;;;;5073608;28;20446;-68
2021/05/29 10:59:06;;;;;;;5.20;2.47;;;29.20;48.90;;;;;;5073397;28;20475;-66
2021/05/29 11:01:40;;;;;;;3.15;2.30;;;28.10;50.50;;;;;;5065570;28;20048;-64
2021/05/29 11:04:14;;;;;;;4.53;1.92;;;28.90;49.30;;;;;;5054214;28;20033;-69
2021/05/29 11:06:42;;;;;;;3.92;2.22;;;29.50;48.10;;;;;;5054191;28;20116;-70
2021/05/29 11:09:09;;;;;;;2.80;1.80;;;30.00;48.10;;;;;;5053009;28;20025;-70
2021/05/29 11:14:06;;;;;;;5.43;2.00;;;;;;;;;;5053920;28;20029;-72
2021/05/29 11:16:51;;;;;;;3.20;1.83;;;;;;;;;;5064269;28;20040;-71
2021/05/29 11:19:21;;;;;;;2.25;2.00;;;;;;;;;;5074036;28;20032;-71
2021/05/29 11:22:11;;;;;;;4.03;2.17;;;30.00;47.80;;;;;;5073989;28;20032;-72
2021/05/29 11:24:42;;;;;;;2.10;1.88;;;31.20;46.10;;;;;;5073972;28;20024;-73
2021/05/29 11:27:19;;;;;;;3.90;2.28;;;32.00;44.30;;;;;;5073671;28;20469;-72
2021/05/29 11:29:51;;;;;;;7.10;2.40;;;32.10;44.20;;;;;;5073985;28;20310;-74
2021/05/29 11:32:40;;;;;;;3.83;2.28;;;32.40;45.30;;;;;;5073898;28;20021;-72
2021/05/29 11:35:06;;;;;;;2.58;1.70;;;;;;;;;;5074053;28;20056;-71
2021/05/29 11:37:31;;;;;;;2.20;1.67;;;30.90;45.50;;;;;;5074048;28;20028;-70
2021/05/29 11:39:57;;;;;;;4.53;2.55;;;29.30;47.40;;;;;;5073796;28;20082;-70
2021/05/29 11:42:25;;;;;;;3.97;2.17;;;29.60;47.20;;;;;;5073726;28;20086;-71
2021/05/29 11:44:51;;;;;;;2.15;1.90;;;;;;;;;;5072495;28;20082;-71
2021/05/29 11:47:17;;;;;;;4.00;2.17;;;30.00;47.00;;;;;;5057061;28;20034;-69
2021/05/29 11:49:45;;;;;;;4.40;3.13;;;27.70;48.90;;;;;;5053575;28;20458;-69
2021/05/29 11:52:11;;;;;;;5.20;3.08;;;;;;;;;;5051352;28;20082;-70
2021/05/29 11:54:40;;;;;;;3.40;2.63;;;26.80;51.40;;;;;;5052249;28;20020;-71
2021/05/29 11:57:06;;;;;;;2.80;2.50;;;;;;;;;;5053202;28;20033;-71
2021/05/29 11:59:32;;;;;;;5.53;2.92;;;;;;;;;;5053260;28;20178;-70
2021/05/29 12:01:59;;;;;;;2.85;2.22;;;;;;;;;;5052595;28;20021;-70
2021/05/29 12:04:27;;;;;;;4.32;2.17;;;29.50;48.90;;;;;;5053166;28;20032;-70
2021/05/29 12:06:56;;;;;;;2.45;2.08;;;31.00;47.50;;;;;;5053190;28;20021;-69
2021/05/29 12:09:22;;;;;;;2.25;2.03;;;31.70;45.30;;;;;;5052033;28;20028;-68
2021/05/29 12:12:04;;;;;;;4.40;2.10;;;32.70;42.90;;;;;;5053004;28;20028;-68
2021/05/29 12:14:38;;;;;;;2.20;1.90;;;32.70;43.40;;;;;;5051857;28;20021;-67
2021/05/29 12:17:14;;;;;;;2.72;2.00;;;33.00;42.10;;;;;;5067641;28;20031;-67
2021/05/29 12:19:51;;;;;;;3.58;2.35;;;33.30;42.30;;;;;;5073049;28;20491;-67
2021/05/29 12:22:26;;;;;;;3.75;2.65;;;31.90;44.00;;;;;;5072798;28;20020;-70
2021/05/29 12:25:04;;;;;;;2.95;2.25;;;31.90;43.80;;;;;;5072766;28;20020;-75
2021/05/29 12:27:32;;;;;;;2.20;2.00;;;32.10;44.80;;;;;;5072381;28;20071;-77
2021/05/29 12:29:59;;;;;;;6.15;3.28;;;;;;;;;;5072560;28;20611;-76
2021/05/29 12:32:37;;;;;;;2.95;2.38;;;;;;;;;;5072376;28;20025;-76
2021/05/29 12:35:05;;;;;;;3.92;2.50;;;32.40;42.60;;;;;;5072404;28;20029;-76
2021/05/29 12:37:32;;;;;;;3.70;2.83;;;28.80;46.70;;;;;;5072383;28;20024;-73
2021/05/29 12:40:02;;;;;;;5.07;2.97;;;28.80;46.90;;;;;;5072556;28;20025;-67
2021/05/29 12:42:47;;;;;;;3.75;2.58;;;27.70;48.20;;;;;;5060931;28;20025;-67
2021/05/29 12:45:27;;;;;;;6.38;3.25;;;28.10;48.90;;;;;;5052155;28;20035;-68
2021/05/29 12:47:54;;;;;;;3.88;3.00;;;30.00;46.50;;;;;;5036164;28;20033;-68
2021/05/29 12:50:31;;;;;;;6.15;4.30;;;30.80;45.80;;;;;;5032266;28;20495;-69
2021/05/29 12:53:17;;;;;;;5.28;2.85;;;32.00;44.10;;;;;;5032239;28;20026;-67
2021/05/29 12:55:44;;;;;;;4.65;3.47;;;;;;;;;;5032057;28;20033;-69
2021/05/29 12:58:15;;;;;;;5.47;4.28;;;;;;;;;;5031997;28;20040;-68
2021/05/29 13:01:29;;;;;;;4.00;3.67;;;31.60;43.70;;;;;;5031979;28;20021;-67
2021/05/29 13:11:45;;;;;;;5.68;4.00;;;31.20;45.10;;;;;;5031459;28;20053;-70
2021/05/29 13:14:13;;;;;;;3.53;3.22;;;32.30;44.10;;;;;;5030575;28;20498;-70
2021/05/29 13:16:58;;;;;;;3.90;3.47;;;31.50;42.70;;;;;;5052875;28;20038;-70
2021/05/29 13:19:27;;;;;;;4.35;3.80;;;30.80;44.40;;;;;;5071846;28;20035;-68
2021/05/29 13:21:54;;;;;;;4.50;3.67;;;31.00;44.60;;;;;;5071853;28;20429;-68
2021/05/29 13:24:42;;;;;;;4.70;3.88;;;31.60;44.20;;;;;;5071945;28;20021;-68
2021/05/29 13:27:11;;;;;;;7.88;5.50;;;32.10;44.30;;;;;;5071565;28;20465;-68